sensor_id;sensor_type;location;lat;lon;timestamp;pressure;altitude;pressure_sealevel;temperature;humidity
71907;BME280;59781;52.090;5.030;2023-08-06T00:00:25;100371.22;;;18.70;100.00
71907;BME280;59781;52.090;5.030;2023-08-06T00:02:51;100375.31;;;18.60;100.00
71907;BME280;59781;52.090;5.030;2023-08-06T00:05:17;100373.84;;;18.88;100.00
71907;BME280;59781;52.090;5.030;2023-08-06T00:07:49;100371.91;;;18.77;100.00
71907;BME280;59781;52.090;5.030;2023-08-06T00:10:16;100385.97;;;18.39;100.00
71907;BME280;59781;52.090;5.030;2023-08-06T00:12:43;100387.38;;;18.41;100.00
71907;BME280;59781;52.090;5.030;2023-08-06T00:15:10;100374.75;;;19.05;100.00
71907;BME280;59781;52.090;5.030;2023-08-06T00:17:37;100380.13;;;18.47;100.00
71907;BME280;59781;52.090;5.030;2023-08-06T00:20:04;100378.31;;;18.94;100.00
71907;BME280;59781;52.090;5.030;2023-08-06T00:22:35;100367.41;;;19.17;100.00
71907;BME280;59781;52.090;5.030;2023-08-06T00:25:04;100372.41;;;19.09;100.00
71907;BME280;59781;52.090;5.030;2023-08-06T00:27:30;100371.34;;;18.98;100.00
71907;BME280;59781;52.090;5.030;2023-08-06T00:29:58;100364.09;;;18.69;100.00
71907;BME280;59781;52.090;5.030;2023-08-06T00:32:24;100369.16;;;18.65;100.00
71907;BME280;59781;52.090;5.030;2023-08-06T00:34:50;100376.19;;;18.84;100.00
71907;BME280;59781;52.090;5.030;2023-08-06T00:37:18;100368.00;;;18.84;100.00
71907;BME280;59781;52.090;5.030;2023-08-06T00:39:44;100371.34;;;18.98;100.00
71907;BME280;59781;52.090;5.030;2023-08-06T00:42:11;100373.94;;;18.28;100.00
71907;BME280;59781;52.090;5.030;2023-08-06T00:44:38;100365.84;;;18.86;100.00
71907;BME280;59781;52.090;5.030;2023-08-06T00:47:05;100367.78;;;19.09;100.00
71907;BME280;59781;52.090;5.030;2023-08-06T00:49:34;100372.97;;;19.11;100.00
71907;BME280;59781;52.090;5.030;2023-08-06T00:52:03;100364.34;;;18.79;100.00
71907;BME280;59781;52.090;5.030;2023-08-06T00:54:31;100365.75;;;19.05;100.00
71907;BME280;59781;52.090;5.030;2023-08-06T00:57:01;100370.50;;;18.74;100.00
71907;BME280;59781;52.090;5.030;2023-08-06T00:59:28;100368.34;;;18.65;100.00
71907;BME280;59781;52.090;5.030;2023-08-06T01:01:56;100368.06;;;18.43;100.00
71907;BME280;59781;52.090;5.030;2023-08-06T01:04:22;100363.38;;;18.73;100.00
71907;BME280;59781;52.090;5.030;2023-08-06T01:06:55;100374.91;;;18.45;100.00
71907;BME280;59781;52.090;5.030;2023-08-06T01:09:54;100381.28;;;17.12;100.00
71907;BME280;59781;52.090;5.030;2023-08-06T01:12:54;100365.63;;;18.76;100.00
71907;BME280;59781;52.090;5.030;2023-08-06T01:15:55;100364.19;;;18.74;100.00
71907;BME280;59781;52.090;5.030;2023-08-06T01:18:23;100369.03;;;18.18;100.00
71907;BME280;59781;52.090;5.030;2023-08-06T01:20:48;100372.94;;;18.64;100.00
71907;BME280;59781;52.090;5.030;2023-08-06T01:23:15;100365.81;;;18.63;100.00
71907;BME280;59781;52.090;5.030;2023-08-06T01:25:59;100370.59;;;18.68;100.00
71907;BME280;59781;52.090;5.030;2023-08-06T01:28:54;100365.75;;;18.70;100.00
71907;BME280;59781;52.090;5.030;2023-08-06T01:31:35;100361.84;;;18.24;100.00
71907;BME280;59781;52.090;5.030;2023-08-06T01:34:06;100363.69;;;18.53;100.00
71907;BME280;59781;52.090;5.030;2023-08-06T01:36:35;100360.59;;;18.61;100.00
71907;BME280;59781;52.090;5.030;2023-08-06T01:39:01;100362.38;;;18.56;100.00
71907;BME280;59781;52.090;5.030;2023-08-06T01:41:27;100364.41;;;18.49;100.00
71907;BME280;59781;52.090;5.030;2023-08-06T01:43:53;100370.63;;;18.26;100.00
71907;BME280;59781;52.090;5.030;2023-08-06T01:46:19;100365.44;;;18.48;100.00
71907;BME280;59781;52.090;5.030;2023-08-06T01:48:44;100371.38;;;18.45;100.00
71907;BME280;59781;52.090;5.030;2023-08-06T01:51:10;100368.34;;;18.65;100.00
71907;BME280;59781;52.090;5.030;2023-08-06T01:53:35;100370.38;;;18.69;100.00
71907;BME280;59781;52.090;5.030;2023-08-06T01:56:01;100371.44;;;18.68;100.00
71907;BME280;59781;52.090;5.030;2023-08-06T01:58:27;100374.63;;;18.23;100.00
71907;BME280;59781;52.090;5.030;2023-08-06T02:00:53;100374.63;;;18.23;100.00
71907;BME280;59781;52.090;5.030;2023-08-06T02:03:18;100375.06;;;18.39;100.00
71907;BME280;59781;52.090;5.030;2023-08-06T02:05:46;100374.19;;;18.68;100.00
71907;BME280;59781;52.090;5.030;2023-08-06T02:08:12;100371.81;;;18.83;100.00
71907;BME280;59781;52.090;5.030;2023-08-06T02:10:37;100374.28;;;18.85;100.00
71907;BME280;59781;52.090;5.030;2023-08-06T02:13:03;100378.47;;;18.46;100.00
71907;BME280;59781;52.090;5.030;2023-08-06T02:15:29;100377.31;;;18.42;100.00
71907;BME280;59781;52.090;5.030;2023-08-06T02:17:55;100380.06;;;18.12;100.00
71907;BME280;59781;52.090;5.030;2023-08-06T02:20:21;100382.41;;;18.50;100.00
71907;BME280;59781;52.090;5.030;2023-08-06T02:22:46;100383.09;;;18.33;100.00
71907;BME280;59781;52.090;5.030;2023-08-06T02:25:12;100385.00;;;18.56;100.00
71907;BME280;59781;52.090;5.030;2023-08-06T02:27:38;100390.13;;;18.53;100.00
71907;BME280;59781;52.090;5.030;2023-08-06T02:30:05;100380.13;;;18.47;100.00
71907;BME280;59781;52.090;5.030;2023-08-06T02:32:31;100384.16;;;18.44;100.00
71907;BME280;59781;52.090;5.030;2023-08-06T02:34:59;100382.63;;;18.48;100.00
71907;BME280;59781;52.090;5.030;2023-08-06T02:37:25;100381.69;;;18.43;100.00
71907;BME280;59781;52.090;5.030;2023-08-06T02:39:51;100386.28;;;18.72;100.00
71907;BME280;59781;52.090;5.030;2023-08-06T02:42:16;100386.72;;;18.27;100.00
71907;BME280;59781;52.090;5.030;2023-08-06T02:44:42;100387.88;;;18.50;100.00
71907;BME280;59781;52.090;5.030;2023-08-06T02:47:08;100376.03;;;18.68;100.00
71907;BME280;59781;52.090;5.030;2023-08-06T02:49:34;100382.44;;;18.61;100.00
71907;BME280;59781;52.090;5.030;2023-08-06T02:51:59;100380.88;;;18.54;100.00
71907;BME280;59781;52.090;5.030;2023-08-06T02:54:25;100376.78;;;18.86;100.00
71907;BME280;59781;52.090;5.030;2023-08-06T02:56:51;100379.13;;;18.59;100.00
71907;BME280;59781;52.090;5.030;2023-08-06T02:59:23;100375.84;;;18.81;100.00
71907;BME280;59781;52.090;5.030;2023-08-06T03:02:05;100368.59;;;18.86;100.00
71907;BME280;59781;52.090;5.030;2023-08-06T03:04:46;100374.25;;;18.61;100.00
71907;BME280;59781;52.090;5.030;2023-08-06T03:07:12;100372.94;;;18.64;100.00
71907;BME280;59781;52.090;5.030;2023-08-06T03:09:50;100370.75;;;18.31;100.00
71907;BME280;59781;52.090;5.030;2023-08-06T03:12:16;100366.25;;;18.48;100.00
71907;BME280;59781;52.090;5.030;2023-08-06T03:14:42;100375.00;;;18.27;100.00
71907;BME280;59781;52.090;5.030;2023-08-06T03:17:08;100368.38;;;18.34;100.00
71907;BME280;59781;52.090;5.030;2023-08-06T03:19:35;100368.25;;;18.71;100.00
71907;BME280;59781;52.090;5.030;2023-08-06T03:22:01;100374.34;;;18.55;100.00
71907;BME280;59781;52.090;5.030;2023-08-06T03:24:26;100372.94;;;18.64;100.00
71907;BME280;59781;52.090;5.030;2023-08-06T03:26:52;100369.84;;;18.49;100.00
71907;BME280;59781;52.090;5.030;2023-08-06T03:29:18;100373.09;;;18.69;100.00
71907;BME280;59781;52.090;5.030;2023-08-06T03:31:45;100372.34;;;18.62;100.00
71907;BME280;59781;52.090;5.030;2023-08-06T03:34:13;100373.94;;;18.70;100.00
71907;BME280;59781;52.090;5.030;2023-08-06T03:36:40;100375.69;;;18.87;100.00
71907;BME280;59781;52.090;5.030;2023-08-06T03:39:06;100369.03;;;18.60;100.00
71907;BME280;59781;52.090;5.030;2023-08-06T03:41:31;100372.69;;;18.54;100.00
71907;BME280;59781;52.090;5.030;2023-08-06T03:43:58;100376.81;;;18.45;100.00
71907;BME280;59781;52.090;5.030;2023-08-06T03:46:25;100380.28;;;18.52;100.00
71907;BME280;59781;52.090;5.030;2023-08-06T03:48:52;100379.13;;;18.59;100.00
71907;BME280;59781;52.090;5.030;2023-08-06T03:51:17;100381.09;;;18.41;100.00
71907;BME280;59781;52.090;5.030;2023-08-06T03:53:45;100373.16;;;18.39;100.00
71907;BME280;59781;52.090;5.030;2023-08-06T03:56:11;100381.66;;;18.31;100.00
71907;BME280;59781;52.090;5.030;2023-08-06T03:58:37;100382.59;;;18.25;100.00
71907;BME280;59781;52.090;5.030;2023-08-06T04:01:03;100374.06;;;18.21;100.00
71907;BME280;59781;52.090;5.030;2023-08-06T04:03:38;100375.47;;;18.66;100.00
71907;BME280;59781;52.090;5.030;2023-08-06T04:06:04;100378.63;;;18.51;100.00
71907;BME280;59781;52.090;5.030;2023-08-06T04:08:29;100382.59;;;18.37;100.00
71907;BME280;59781;52.090;5.030;2023-08-06T04:10:55;100379.59;;;18.15;100.00
71907;BME280;59781;52.090;5.030;2023-08-06T04:13:21;100386.34;;;18.12;100.00
71907;BME280;59781;52.090;5.030;2023-08-06T04:15:47;100392.31;;;18.32;100.00
71907;BME280;59781;52.090;5.030;2023-08-06T04:18:13;100384.41;;;18.43;100.00
71907;BME280;59781;52.090;5.030;2023-08-06T04:20:44;100383.31;;;18.32;100.00
71907;BME280;59781;52.090;5.030;2023-08-06T04:23:10;100380.09;;;18.23;100.00
71907;BME280;59781;52.090;5.030;2023-08-06T04:25:37;100384.25;;;18.38;100.00
71907;BME280;59781;52.090;5.030;2023-08-06T04:28:02;100390.91;;;18.30;100.00
71907;BME280;59781;52.090;5.030;2023-08-06T04:30:28;100398.97;;;18.06;100.00
71907;BME280;59781;52.090;5.030;2023-08-06T04:32:56;100397.38;;;18.17;100.00
71907;BME280;59781;52.090;5.030;2023-08-06T04:35:24;100397.31;;;18.05;100.00
71907;BME280;59781;52.090;5.030;2023-08-06T04:37:49;100406.03;;;18.26;100.00
71907;BME280;59781;52.090;5.030;2023-08-06T04:40:15;100398.13;;;18.36;100.00
71907;BME280;59781;52.090;5.030;2023-08-06T04:42:41;100400.41;;;18.09;100.00
71907;BME280;59781;52.090;5.030;2023-08-06T04:45:07;100411.59;;;18.49;100.00
71907;BME280;59781;52.090;5.030;2023-08-06T04:47:33;100406.44;;;18.29;100.00
71907;BME280;59781;52.090;5.030;2023-08-06T04:49:58;100411.06;;;18.29;100.00
71907;BME280;59781;52.090;5.030;2023-08-06T04:52:24;100407.66;;;18.15;100.00
71907;BME280;59781;52.090;5.030;2023-08-06T04:54:53;100418.03;;;18.25;100.00
71907;BME280;59781;52.090;5.030;2023-08-06T04:57:20;100411.31;;;18.39;100.00
71907;BME280;59781;52.090;5.030;2023-08-06T04:59:46;100420.28;;;18.28;100.00
71907;BME280;59781;52.090;5.030;2023-08-06T05:02:12;100411.63;;;18.19;100.00
71907;BME280;59781;52.090;5.030;2023-08-06T05:04:38;100427.47;;;18.11;100.00
71907;BME280;59781;52.090;5.030;2023-08-06T05:07:05;100419.31;;;18.22;100.00
71907;BME280;59781;52.090;5.030;2023-08-06T05:09:31;100425.25;;;18.19;100.00
71907;BME280;59781;52.090;5.030;2023-08-06T05:11:56;100428.72;;;18.08;100.00
71907;BME280;59781;52.090;5.030;2023-08-06T05:14:22;100438.38;;;17.92;100.00
71907;BME280;59781;52.090;5.030;2023-08-06T05:16:48;100436.88;;;18.26;100.00
71907;BME280;59781;52.090;5.030;2023-08-06T05:19:13;100438.72;;;18.14;100.00
71907;BME280;59781;52.090;5.030;2023-08-06T05:21:39;100437.13;;;18.06;100.00
71907;BME280;59781;52.090;5.030;2023-08-06T05:24:05;100439.34;;;18.28;100.00
71907;BME280;59781;52.090;5.030;2023-08-06T05:26:30;100446.38;;;18.35;100.00
71907;BME280;59781;52.090;5.030;2023-08-06T05:28:56;100454.66;;;18.29;100.00
71907;BME280;59781;52.090;5.030;2023-08-06T05:31:22;100454.75;;;18.22;100.00
71907;BME280;59781;52.090;5.030;2023-08-06T05:33:47;100457.44;;;18.11;100.00
71907;BME280;59781;52.090;5.030;2023-08-06T05:36:13;100460.84;;;17.88;100.00
71907;BME280;59781;52.090;5.030;2023-08-06T05:38:39;100471.94;;;18.23;100.00
71907;BME280;59781;52.090;5.030;2023-08-06T05:41:04;100474.03;;;17.91;100.00
71907;BME280;59781;52.090;5.030;2023-08-06T05:43:30;100474.84;;;18.10;100.00
71907;BME280;59781;52.090;5.030;2023-08-06T05:45:56;100475.09;;;17.90;100.00
71907;BME280;59781;52.090;5.030;2023-08-06T05:48:21;100468.50;;;17.79;100.00
71907;BME280;59781;52.090;5.030;2023-08-06T05:50:50;100473.94;;;17.61;100.00
71907;BME280;59781;52.090;5.030;2023-08-06T05:53:17;100477.72;;;17.78;100.00
71907;BME280;59781;52.090;5.030;2023-08-06T05:55:43;100485.03;;;17.59;100.00
71907;BME280;59781;52.090;5.030;2023-08-06T05:58:08;100482.88;;;17.86;100.00
71907;BME280;59781;52.090;5.030;2023-08-06T06:00:34;100484.09;;;17.72;100.00
71907;BME280;59781;52.090;5.030;2023-08-06T06:03:00;100495.50;;;17.62;100.00
71907;BME280;59781;52.090;5.030;2023-08-06T06:05:26;100494.81;;;17.67;100.00
71907;BME280;59781;52.090;5.030;2023-08-06T06:07:52;100499.66;;;17.65;100.00
71907;BME280;59781;52.090;5.030;2023-08-06T06:10:18;100496.56;;;17.61;100.00
71907;BME280;59781;52.090;5.030;2023-08-06T06:12:43;100505.44;;;17.75;100.00
71907;BME280;59781;52.090;5.030;2023-08-06T06:15:09;100506.44;;;17.56;100.00
71907;BME280;59781;52.090;5.030;2023-08-06T06:17:35;100507.63;;;17.85;100.00
71907;BME280;59781;52.090;5.030;2023-08-06T06:20:01;100509.22;;;17.74;100.00
71907;BME280;59781;52.090;5.030;2023-08-06T06:22:29;100506.94;;;18.08;100.00
71907;BME280;59781;52.090;5.030;2023-08-06T06:24:55;100507.66;;;17.60;100.00
71907;BME280;59781;52.090;5.030;2023-08-06T06:27:21;100519.66;;;17.95;100.00
71907;BME280;59781;52.090;5.030;2023-08-06T06:29:46;100524.63;;;18.35;100.00
71907;BME280;59781;52.090;5.030;2023-08-06T06:32:12;100520.72;;;17.94;100.00
71907;BME280;59781;52.090;5.030;2023-08-06T06:34:38;100519.66;;;18.14;100.00
71907;BME280;59781;52.090;5.030;2023-08-06T06:37:04;100531.22;;;18.09;100.00
71907;BME280;59781;52.090;5.030;2023-08-06T06:39:30;100533.03;;;17.78;100.00
71907;BME280;59781;52.090;5.030;2023-08-06T06:41:55;100526.28;;;18.18;100.00
71907;BME280;59781;52.090;5.030;2023-08-06T06:44:29;100532.31;;;17.90;100.00
71907;BME280;59781;52.090;5.030;2023-08-06T06:46:55;100541.22;;;17.97;100.00
71907;BME280;59781;52.090;5.030;2023-08-06T06:49:20;100542.22;;;18.21;100.00
71907;BME280;59781;52.090;5.030;2023-08-06T06:51:46;100540.72;;;18.55;100.00
71907;BME280;59781;52.090;5.030;2023-08-06T06:54:12;100544.28;;;18.37;100.00
71907;BME280;59781;52.090;5.030;2023-08-06T06:56:38;100544.94;;;18.21;100.00
71907;BME280;59781;52.090;5.030;2023-08-06T06:59:03;100552.34;;;18.14;100.00
71907;BME280;59781;52.090;5.030;2023-08-06T07:01:29;100543.66;;;18.23;100.00
71907;BME280;59781;52.090;5.030;2023-08-06T07:03:55;100552.09;;;18.70;100.00
71907;BME280;59781;52.090;5.030;2023-08-06T07:06:20;100546.03;;;18.68;100.00
71907;BME280;59781;52.090;5.030;2023-08-06T07:08:46;100542.13;;;18.76;100.00
71907;BME280;59781;52.090;5.030;2023-08-06T07:11:12;100555.63;;;18.71;100.00
71907;BME280;59781;52.090;5.030;2023-08-06T07:13:37;100554.91;;;18.45;100.00
71907;BME280;59781;52.090;5.030;2023-08-06T07:16:03;100552.59;;;18.30;100.00
71907;BME280;59781;52.090;5.030;2023-08-06T07:18:29;100549.72;;;18.74;100.00
71907;BME280;59781;52.090;5.030;2023-08-06T07:20:55;100558.88;;;18.79;100.00
71907;BME280;59781;52.090;5.030;2023-08-06T07:23:23;100554.78;;;19.00;100.00
71907;BME280;59781;52.090;5.030;2023-08-06T07:25:51;100568.88;;;18.67;100.00
71907;BME280;59781;52.090;5.030;2023-08-06T07:28:17;100566.91;;;18.74;100.00
71907;BME280;59781;52.090;5.030;2023-08-06T07:30:44;100573.13;;;18.81;100.00
71907;BME280;59781;52.090;5.030;2023-08-06T07:33:11;100565.38;;;19.08;100.00
71907;BME280;59781;52.090;5.030;2023-08-06T07:35:37;100586.59;;;18.10;100.00
71907;BME280;59781;52.090;5.030;2023-08-06T07:38:03;100586.50;;;18.16;100.00
71907;BME280;59781;52.090;5.030;2023-08-06T07:40:29;100576.03;;;18.98;100.00
71907;BME280;59781;52.090;5.030;2023-08-06T07:42:55;100581.22;;;18.88;100.00
71907;BME280;59781;52.090;5.030;2023-08-06T07:45:20;100591.88;;;19.31;100.00
71907;BME280;59781;52.090;5.030;2023-08-06T07:47:46;100586.13;;;19.74;100.00
71907;BME280;59781;52.090;5.030;2023-08-06T07:50:13;100590.75;;;19.62;100.00
71907;BME280;59781;52.090;5.030;2023-08-06T07:52:39;100586.31;;;19.38;100.00
71907;BME280;59781;52.090;5.030;2023-08-06T07:55:05;100592.72;;;19.32;100.00
71907;BME280;59781;52.090;5.030;2023-08-06T07:57:32;100599.91;;;19.68;100.00
71907;BME280;59781;52.090;5.030;2023-08-06T07:59:59;100595.44;;;19.32;100.00
71907;BME280;59781;52.090;5.030;2023-08-06T08:02:24;100598.44;;;19.00;100.00
71907;BME280;59781;52.090;5.030;2023-08-06T08:04:50;100599.69;;;18.86;100.00
71907;BME280;59781;52.090;5.030;2023-08-06T08:07:16;100598.00;;;19.15;100.00
71907;BME280;59781;52.090;5.030;2023-08-06T08:09:42;100596.28;;;18.90;100.00
71907;BME280;59781;52.090;5.030;2023-08-06T08:12:07;100603.44;;;18.73;100.00
71907;BME280;59781;52.090;5.030;2023-08-06T08:14:33;100600.16;;;18.83;100.00
71907;BME280;59781;52.090;5.030;2023-08-06T08:17:05;100605.13;;;18.38;100.00
71907;BME280;59781;52.090;5.030;2023-08-06T08:19:32;100609.13;;;18.35;100.00
71907;BME280;59781;52.090;5.030;2023-08-06T08:21:57;100605.50;;;18.41;100.00
71907;BME280;59781;52.090;5.030;2023-08-06T08:24:24;100609.28;;;18.58;100.00
71907;BME280;59781;52.090;5.030;2023-08-06T08:26:51;100606.88;;;18.99;100.00
71907;BME280;59781;52.090;5.030;2023-08-06T08:29:17;100610.84;;;18.84;100.00
71907;BME280;59781;52.090;5.030;2023-08-06T08:31:42;100610.66;;;18.98;100.00
71907;BME280;59781;52.090;5.030;2023-08-06T08:34:09;100615.28;;;19.27;100.00
71907;BME280;59781;52.090;5.030;2023-08-06T08:36:35;100608.34;;;19.13;100.00
71907;BME280;59781;52.090;5.030;2023-08-06T08:39:01;100618.00;;;19.27;100.00
71907;BME280;59781;52.090;5.030;2023-08-06T08:41:30;100613.34;;;19.69;100.00
71907;BME280;59781;52.090;5.030;2023-08-06T08:43:58;100614.75;;;19.72;100.00
71907;BME280;59781;52.090;5.030;2023-08-06T08:46:30;100610.75;;;19.86;100.00
71907;BME280;59781;52.090;5.030;2023-08-06T08:48:59;100611.81;;;19.97;100.00
71907;BME280;59781;52.090;5.030;2023-08-06T08:51:27;100610.50;;;19.88;100.00
71907;BME280;59781;52.090;5.030;2023-08-06T08:53:55;100615.47;;;19.67;100.00
71907;BME280;59781;52.090;5.030;2023-08-06T08:56:24;100615.16;;;19.34;100.00
71907;BME280;59781;52.090;5.030;2023-08-06T08:58:50;100620.56;;;19.64;100.00
71907;BME280;59781;52.090;5.030;2023-08-06T09:01:22;100622.72;;;19.62;100.00
71907;BME280;59781;52.090;5.030;2023-08-06T09:03:47;100631.63;;;19.92;100.00
71907;BME280;59781;52.090;5.030;2023-08-06T09:06:15;100625.88;;;19.47;100.00
71907;BME280;59781;52.090;5.030;2023-08-06T09:08:50;100639.41;;;19.54;100.00
71907;BME280;59781;52.090;5.030;2023-08-06T09:11:21;100635.19;;;19.81;100.00
71907;BME280;59781;52.090;5.030;2023-08-06T09:13:47;100634.25;;;19.87;100.00
71907;BME280;59781;52.090;5.030;2023-08-06T09:16:13;100642.81;;;19.91;100.00
71907;BME280;59781;52.090;5.030;2023-08-06T09:18:39;100633.91;;;20.07;100.00
71907;BME280;59781;52.090;5.030;2023-08-06T09:21:05;100645.44;;;19.97;100.00
71907;BME280;59781;52.090;5.030;2023-08-06T09:23:32;100643.88;;;20.13;100.00
71907;BME280;59781;52.090;5.030;2023-08-06T09:25:59;100647.53;;;20.30;100.00
71907;BME280;59781;52.090;5.030;2023-08-06T09:28:37;100651.38;;;20.18;100.00
71907;BME280;59781;52.090;5.030;2023-08-06T09:31:09;100641.38;;;20.12;100.00
71907;BME280;59781;52.090;5.030;2023-08-06T09:33:36;100646.50;;;20.08;100.00
71907;BME280;59781;52.090;5.030;2023-08-06T09:36:10;100661.00;;;19.97;100.00
71907;BME280;59781;52.090;5.030;2023-08-06T09:38:40;100657.44;;;20.08;100.00
71907;BME280;59781;52.090;5.030;2023-08-06T09:41:07;100661.44;;;20.05;100.00
71907;BME280;59781;52.090;5.030;2023-08-06T09:43:41;100663.91;;;19.18;100.00
71907;BME280;59781;52.090;5.030;2023-08-06T09:46:11;100665.13;;;20.23;100.00
71907;BME280;59781;52.090;5.030;2023-08-06T09:48:45;100675.25;;;20.11;100.00
71907;BME280;59781;52.090;5.030;2023-08-06T09:51:13;100680.25;;;20.02;100.00
71907;BME280;59781;52.090;5.030;2023-08-06T09:53:40;100676.56;;;20.31;100.00
71907;BME280;59781;52.090;5.030;2023-08-06T09:56:09;100677.75;;;20.00;100.00
71907;BME280;59781;52.090;5.030;2023-08-06T09:58:36;100692.00;;;19.91;100.00
71907;BME280;59781;52.090;5.030;2023-08-06T10:01:04;100690.09;;;20.15;100.00
71907;BME280;59781;52.090;5.030;2023-08-06T10:03:30;100689.03;;;20.04;100.00
71907;BME280;59781;52.090;5.030;2023-08-06T10:05:59;100692.97;;;20.20;100.00
71907;BME280;59781;52.090;5.030;2023-08-06T10:08:27;100697.03;;;20.17;100.00
71907;BME280;59781;52.090;5.030;2023-08-06T10:10:53;100694.03;;;20.19;100.00
71907;BME280;59781;52.090;5.030;2023-08-06T10:13:21;100694.75;;;20.26;100.00
71907;BME280;59781;52.090;5.030;2023-08-06T10:15:50;100700.81;;;20.28;100.00
71907;BME280;59781;52.090;5.030;2023-08-06T10:18:19;100695.09;;;20.53;100.00
71907;BME280;59781;52.090;5.030;2023-08-06T10:20:47;100693.91;;;20.60;100.00
71907;BME280;59781;52.090;5.030;2023-08-06T10:23:13;100691.44;;;20.99;100.00
71907;BME280;59781;52.090;5.030;2023-08-06T10:25:42;100702.91;;;20.73;100.00
71907;BME280;59781;52.090;5.030;2023-08-06T10:28:10;100698.75;;;21.10;100.00
71907;BME280;59781;52.090;5.030;2023-08-06T10:30:46;100694.41;;;20.98;100.00
71907;BME280;59781;52.090;5.030;2023-08-06T10:33:13;100701.72;;;20.80;100.00
71907;BME280;59781;52.090;5.030;2023-08-06T10:38:14;100703.91;;;20.55;100.00
71907;BME280;59781;52.090;5.030;2023-08-06T10:40:48;100702.50;;;21.04;100.00
71907;BME280;59781;52.090;5.030;2023-08-06T10:43:29;100706.69;;;20.83;100.00
71907;BME280;59781;52.090;5.030;2023-08-06T10:46:01;100700.81;;;20.40;100.00
71907;BME280;59781;52.090;5.030;2023-08-06T10:48:32;100703.31;;;20.29;100.00
71907;BME280;59781;52.090;5.030;2023-08-06T10:51:10;100703.19;;;20.24;100.00
71907;BME280;59781;52.090;5.030;2023-08-06T10:53:41;100704.84;;;20.14;100.00
71907;BME280;59781;52.090;5.030;2023-08-06T10:58:38;100710.91;;;20.04;100.00
71907;BME280;59781;52.090;5.030;2023-08-06T11:01:04;100728.44;;;19.73;100.00
71907;BME280;59781;52.090;5.030;2023-08-06T11:03:31;100723.94;;;19.67;100.00
71907;BME280;59781;52.090;5.030;2023-08-06T11:05:58;100729.94;;;19.99;100.00
71907;BME280;59781;52.090;5.030;2023-08-06T11:08:28;100725.69;;;19.61;100.00
71907;BME280;59781;52.090;5.030;2023-08-06T11:10:55;100718.00;;;19.40;100.00
71907;BME280;59781;52.090;5.030;2023-08-06T11:13:21;100731.19;;;19.73;100.00
71907;BME280;59781;52.090;5.030;2023-08-06T11:15:47;100735.06;;;19.65;100.00
71907;BME280;59781;52.090;5.030;2023-08-06T11:18:13;100737.63;;;19.79;100.00
71907;BME280;59781;52.090;5.030;2023-08-06T11:20:39;100731.16;;;19.61;100.00
71907;BME280;59781;52.090;5.030;2023-08-06T11:23:05;100735.97;;;19.77;100.00
71907;BME280;59781;52.090;5.030;2023-08-06T11:25:36;100740.97;;;19.51;100.00
71907;BME280;59781;52.090;5.030;2023-08-06T11:28:03;100742.00;;;19.38;100.00
71907;BME280;59781;52.090;5.030;2023-08-06T11:30:29;100740.13;;;19.20;100.00
71907;BME280;59781;52.090;5.030;2023-08-06T11:32:56;100739.25;;;19.68;100.00
71907;BME280;59781;52.090;5.030;2023-08-06T11:35:22;100745.94;;;19.54;100.00
71907;BME280;59781;52.090;5.030;2023-08-06T11:37:47;100740.78;;;19.64;100.00
71907;BME280;59781;52.090;5.030;2023-08-06T11:40:15;100744.09;;;19.36;100.00
71907;BME280;59781;52.090;5.030;2023-08-06T11:42:41;100745.00;;;19.18;100.00
71907;BME280;59781;52.090;5.030;2023-08-06T11:45:08;100742.69;;;19.45;100.00
71907;BME280;59781;52.090;5.030;2023-08-06T11:47:38;100738.06;;;19.64;100.00
71907;BME280;59781;52.090;5.030;2023-08-06T11:50:07;100753.28;;;19.71;100.00
71907;BME280;59781;52.090;5.030;2023-08-06T11:52:33;100748.97;;;20.17;100.00
71907;BME280;59781;52.090;5.030;2023-08-06T11:55:09;100745.75;;;20.20;100.00
71907;BME280;59781;52.090;5.030;2023-08-06T11:57:43;100751.91;;;19.92;100.00
71907;BME280;59781;52.090;5.030;2023-08-06T12:00:12;100759.78;;;20.12;100.00
71907;BME280;59781;52.090;5.030;2023-08-06T12:02:43;100749.22;;;20.39;100.00
71907;BME280;59781;52.090;5.030;2023-08-06T12:05:15;100750.28;;;20.38;100.00
71907;BME280;59781;52.090;5.030;2023-08-06T12:07:44;100748.16;;;20.63;100.00
71907;BME280;59781;52.090;5.030;2023-08-06T12:10:13;100754.69;;;20.74;100.00
71907;BME280;59781;52.090;5.030;2023-08-06T12:12:40;100750.28;;;20.61;100.00
71907;BME280;59781;52.090;5.030;2023-08-06T12:15:07;100754.59;;;20.57;100.00
71907;BME280;59781;52.090;5.030;2023-08-06T12:17:34;100770.59;;;19.17;100.00
71907;BME280;59781;52.090;5.030;2023-08-06T12:20:02;100768.78;;;18.74;100.00
71907;BME280;59781;52.090;5.030;2023-08-06T12:22:30;100771.00;;;19.02;100.00
71907;BME280;59781;52.090;5.030;2023-08-06T12:25:05;100775.56;;;19.08;100.00
71907;BME280;59781;52.090;5.030;2023-08-06T12:27:36;100780.31;;;18.95;100.00
71907;BME280;59781;52.090;5.030;2023-08-06T12:30:05;100775.25;;;20.07;100.00
71907;BME280;59781;52.090;5.030;2023-08-06T12:32:31;100779.88;;;20.18;100.00
71907;BME280;59781;52.090;5.030;2023-08-06T12:34:57;100771.09;;;20.27;100.00
71907;BME280;59781;52.090;5.030;2023-08-06T12:37:24;100774.81;;;20.68;100.00
71907;BME280;59781;52.090;5.030;2023-08-06T12:39:51;100783.72;;;20.63;100.00
71907;BME280;59781;52.090;5.030;2023-08-06T12:42:16;100782.38;;;20.31;100.00
71907;BME280;59781;52.090;5.030;2023-08-06T12:44:42;100775.88;;;20.44;100.00
71907;BME280;59781;52.090;5.030;2023-08-06T12:47:08;100783.13;;;20.85;100.00